x

8461490 - New London, Ct (nlnc3) Weather Station

8:48 - Fri 24th Feb 2017 All times are EST. -5 hours from GMT.

  • Wind
  • Sea Temp 40°f
  • Aire Temp 49°f
  • Sea Pressure 1012.6mb
  • 8461490 - New London, Ct
  • 8461490 - New London, Ct

More Historic Weather Station data

Upgrade to MSW Pro to gain access to the past 30 days of data for over 8000 Wavebouys and Weather Stations around the globe.

Join Pro

Comparision Forecast

View Surf forecast
   
vie 02/24 8:48  -  1 mph 1012.6mb 40f 49f
8:42  -  1 mph 1012.7mb 40f 49f
8:36  -  1 mph 1012.7mb 40f 49f
8:30  -  mph 1012.7mb 40f 48f
8:24  -  1 mph 1012.7mb 40f 48f
8:18  -  2 mph 1012.8mb 40f 49f
8:12 2 3 mph 1012.8mb 40f 48f
8:06 2 5 mph 1012.7mb 40f 48f
8:00 5
mph
1012.7mb 40f 48f
7:54 5 7 mph 1012.8mb 40f 49f
7:48 7
mph
1012.9mb 40f 48f
7:42 3 5 mph 1012.8mb 40f 48f
7:36 3 5 mph 1012.9mb 40f 48f
7:30 3 5 mph 1012.9mb 41f 47f
7:24 3 6 mph 1012.8mb 41f 47f
7:18 6 7 mph 1012.8mb 41f 48f
7:12 7
mph
1012.9mb 41f 48f
7:06 6 8 mph 1013mb 41f 47f
7:00 6 10 mph 1013mb 41f 48f
6:54 6 8 mph 1013mb 41f 47f
6:48 8 9 mph 1013.1mb 41f 48f
6:42 7 8 mph 1013mb 41f 49f
6:36 6 7 mph 1013mb 41f 49f
6:30 5 6 mph 1013mb 41f 49f
6:24 3 6 mph 1013mb 41f 49f
6:18 5 6 mph 1013mb 41f 49f
6:12 3 6 mph 1013mb 41f 48f
6:06 5 7 mph 1013mb 41f 48f
6:00 6 7 mph 1012.9mb 41f 48f
5:54 7 8 mph 1012.9mb 41f 49f
5:48 7 8 mph 1012.9mb - 49f
5:30 7 8 mph 1012.8mb 41f 48f
5:24 7 8 mph 1012.9mb 41f 48f
5:18 6 7 mph 1012.9mb 41f 49f
5:12 6 8 mph 1012.8mb 41f 50f
5:06 6 9 mph 1012.8mb 41f 51f
5:00 8 9 mph 1012.8mb 41f 52f
4:54 6 9 mph 1012.9mb 41f 52f
4:48 7 8 mph 1012.9mb 41f 53f
4:42 6 7 mph 1012.9mb 41f 54f
4:36 6 7 mph 1012.9mb 41f 53f
4:30 6 9 mph 1012.9mb 41f 52f
4:24 8 11 mph 1012.8mb 40f 51f
4:18 11 13 mph 1012.9mb 40f 50f
4:12 13 14 mph 1012.8mb 40f 50f
4:06 10 13 mph 1012.7mb 40f 51f
4:00 10 11 mph 1012.6mb 40f 51f
3:54 11 13 mph 1012.5mb 40f 52f
3:48 10 13 mph 1012.6mb 40f 53f
3:42 11 13 mph 1012.6mb 40f 53f
3:36 11 14 mph 1012.6mb 40f 53f
3:30 11
mph
1012.7mb 40f 52f
3:24 11 13 mph 1012.7mb 40f 53f
3:18 9 11 mph 1012.8mb 40f 53f
3:12 10 11 mph 1012.9mb 41f 53f
3:06 10 13 mph 1012.9mb 41f 54f
3:00 11 14 mph 1012.9mb 41f 53f
2:54 11 13 mph 1012.8mb 41f 54f
2:48 10 13 mph 1012.8mb 41f 54f
2:42 11 14 mph 1012.8mb 41f 55f
2:36 11 17 mph 1012.7mb 41f 59f
2:30 14 18 mph 1012.7mb 41f 64f
2:24 14 18 mph 1012.7mb 41f 63f
2:18 14 20 mph 1012.8mb 41f 64f
2:12 13 18 mph 1012.8mb 41f 64f
2:06 15 20 mph 1012.9mb 41f 63f
2:00 14 21 mph 1013mb 41f 64f
1:54 13 15 mph 1013mb 41f 63f
1:48 10 14 mph 1013mb 41f 59f
1:42 10 14 mph 1013mb 41f 55f
1:36 11 14 mph 1013mb 41f 54f
1:30 10 14 mph 1013.1mb 41f 54f
1:12 10 13 mph 1013.3mb 41f 55f
1:06 10 11 mph 1013.5mb 41f 54f
1:00 9 11 mph 1013.6mb 41f 55f
12:54 9 11 mph 1013.7mb 41f 54f
12:48 9 10 mph 1013.9mb 41f 54f
12:42 9 10 mph 1014.1mb 41f 54f
12:36 8 9 mph 1014.2mb 41f 54f
12:30 7 9 mph 1014.2mb 41f 53f
12:24 8 9 mph 1014.3mb 41f 52f
12:18 9 10 mph 1014.3mb 41f 51f
12:12 7 8 mph 1014.4mb 41f 52f
12:06 8 9 mph 1014.4mb 41f 53f
12:00 9 10 mph 1014.5mb 41f 51f
11:54 9 10 mph 1014.6mb 41f 52f
11:48 6 8 mph 1014.7mb 41f 53f
11:42 7 9 mph 1014.8mb 40f 52f
11:36 8 10 mph 1014.9mb 40f 52f
11:30 8 9 mph 1014.9mb 40f 52f
11:24 6 8 mph 1015mb 40f 53f
11:18 5 7 mph 1015mb 40f 54f
11:12 6 8 mph 1015mb 40f 53f
11:06 7 8 mph 1015.1mb 40f 53f
11:00 7 8 mph 1015.1mb 40f 53f
10:54 6 9 mph 1015.2mb 40f 53f
10:48 8
mph
1015.3mb 40f 52f
10:42 6 8 mph 1015.3mb 40f 52f
10:36 7 9 mph 1015.4mb 40f 52f
10:30 6 9 mph 1015.4mb 40f 52f
10:24 8 9 mph 1015.3mb 40f 52f
10:18 8 9 mph 1015.3mb 40f 53f
10:12 7 10 mph 1015.3mb 40f 52f
10:06 8 10 mph 1015.2mb 40f 53f
10:00 8 11 mph 1015.2mb 40f 53f
9:54 8 10 mph 1015.2mb 40f 53f
9:48 7 9 mph 1015.1mb 40f 53f
9:36 7 8 mph 1015.1mb 40f 52f
9:30 6 8 mph 1015.1mb 40f 51f
9:24 6
mph
1015.1mb 40f 51f
9:18 5 7 mph 1015.1mb 40f 50f
9:12 5 6 mph 1015.1mb 40f 50f
9:06 3
mph
1015mb 40f 50f
9:00 2 5 mph 1015mb 40f 50f
8:54 2 5 mph 1015mb 40f 50f
8:48 3 5 mph 1014.9mb 40f 49f
8:42 3 6 mph 1014.9mb 40f 49f
8:36 5 6 mph 1014.9mb 40f 48f
8:30 5 6 mph 1014.9mb 40f 47f
8:24 5 6 mph 1014.9mb 40f 47f
8:18 5 6 mph 1014.9mb 40f 46f
8:12 5 6 mph 1014.8mb 40f 46f
8:06 3 5 mph 1014.9mb 40f 46f
8:00 3 6 mph 1014.8mb 40f 46f
7:54 6
mph
1014.7mb 40f 45f
7:48 3 6 mph 1014.7mb 40f 45f
7:42 3 5 mph 1014.8mb 40f 45f
7:36 5 6 mph 1014.8mb 40f 45f
7:30 6 7 mph 1014.7mb 40f 44f
7:24 6 7 mph 1014.7mb 40f 44f
7:18 5
mph
1014.7mb 40f 43f
7:12 3
mph
1014.6mb 40f 43f
7:06 1 2 mph 1014.5mb 40f 42f
7:00 1 2 mph 1014.5mb 40f 42f
6:54 1
mph
1014.6mb 40f 43f
6:48  -  2 mph 1014.5mb 40f 43f
6:42 2
mph
1014.5mb 40f 43f
6:36 2
mph
1014.4mb 40f 43f
6:30 1 2 mph 1014.3mb 40f 43f
6:24 1 2 mph 1014.3mb 40f 43f
6:18  -  mph 1014.2mb 40f 43f
6:12  -  2 mph 1014.3mb 40f 43f
6:06 1 2 mph 1014.3mb 40f 43f
6:00  -  1 mph 1014.2mb 40f 43f
5:54 1
mph
1014.2mb 40f 43f
5:48  -  1 mph 1014.3mb 40f 44f
5:42  -  1 mph 1014.3mb 40f 44f
5:36  -  1 mph 1014.3mb 40f 43f
5:30  -  1 mph 1014.2mb 40f 44f
5:24  -  1 mph 1014.2mb 40f 44f
5:18  -  1 mph 1014.2mb 40f 44f
5:12 1
mph
1014.1mb 40f 43f
5:06  -  1 mph 1014.1mb 40f 43f
5:00  -  1 mph 1014mb 40f 43f
4:54  -  1 mph 1014mb 40f 43f
4:48  -  1 mph 1013.8mb 40f 43f
4:42 1 2 mph 1013.8mb 40f 43f
4:36  -  2 mph 1013.8mb 40f 43f
4:30 1
mph
1013.7mb 40f 43f
4:24  -  1 mph 1013.8mb 40f 44f
4:18  -  2 mph 1013.7mb 40f 44f
4:12 2
mph
1013.7mb 40f 44f
4:06 2
mph
1013.7mb 40f 43f
4:00  -  1 mph 1013.7mb 40f 44f
3:54  -  1 mph 1013.8mb 40f 44f
3:48 1 2 mph 1013.8mb 40f 44f
3:42 2 3 mph 1013.8mb 40f 45f
3:36 3 5 mph 1013.8mb 40f 45f
3:30 5 6 mph 1013.8mb 40f 45f
3:24 5 6 mph 1013.7mb 40f 44f
3:18 2 3 mph 1013.8mb 40f 43f
3:12 2 3 mph 1013.7mb 40f 44f
3:06 3
mph
1013.7mb 40f 44f
3:00 2 5 mph 1013.6mb 40f 43f
2:54 3
mph
1013.6mb 40f 43f
2:48 3 5 mph 1013.6mb 40f 43f
2:42 1 2 mph 1013.6mb 40f 44f
2:36 1 2 mph 1013.5mb 40f 44f
2:30 2 3 mph 1013.5mb 40f 44f
2:24  -  1 mph 1013.5mb 40f 45f
2:18  -  mph 1013.4mb 40f 44f
2:12  -  1 mph 1013.5mb 40f 44f
2:06 1 2 mph 1013.5mb 40f 45f
2:00 2
mph
1013.6mb 40f 45f
1:54 1 2 mph 1013.6mb 40f 44f
1:48  -  mph 1013.6mb 40f -
1:42  -  mph 1013.6mb 40f -
1:36  -  1 mph 1013.6mb 40f -
1:30  -  1 mph 1013.5mb 40f 45f
1:24  -  1 mph 1013.4mb 40f 45f
1:18 1 2 mph 1013.3mb 40f 44f
1:12 1 2 mph 1013.4mb 40f 44f
1:06  -  3 mph 1013.5mb 40f 45f
1:00 2 6 mph 1013.5mb 40f 46f
12:54 3 6 mph 1013.4mb 40f 45f
12:48 6 7 mph 1013.1mb 40f -
12:42 6 7 mph 1013.2mb 40f -
12:36 5 6 mph 1013.4mb 40f -
12:30 3 5 mph 1013.4mb 40f 44f
12:24 5
mph
1013.4mb 40f 44f
12:18 2
mph
1013.5mb 40f 44f
12:12 2
mph
1013.4mb 40f 44f
12:06 1 3 mph 1013.5mb 40f 44f
12:00 2 3 mph 1013.5mb 40f 44f
jue 02/23 11:54 1 2 mph 1013.5mb 40f 45f
11:48  -  2 mph 1013.3mb 40f 45f
11:42 2
mph
1013.1mb 40f 44f
11:36 1 2 mph 1013.1mb 40f 45f
11:30 3 6 mph 1012.8mb 40f 45f
11:24 5 6 mph 1012.8mb 40f 46f
11:18 5 6 mph 1012.8mb 40f 46f
11:12 3 5 mph 1012.8mb 40f 46f
11:06 5 6 mph 1012.8mb 40f 45f
11:00 5
mph
1012.7mb 40f 45f
10:54 2 3 mph 1012.8mb 40f 46f
10:48 3
mph
1012.8mb 40f 45f
10:42 5
mph
1012.8mb 40f 45f
10:36 2 5 mph 1012.9mb 40f 45f
10:30 5
mph
1012.9mb 40f 45f
10:24 2 5 mph 1013mb 40f 45f
10:18 3 6 mph 1012.9mb 40f 45f
10:12 5 6 mph 1012.9mb 40f 45f
10:06 6
mph
1012.8mb 40f 45f
10:00 3 6 mph 1012.9mb 40f 45f
9:54 5 7 mph 1012.8mb 40f 45f
9:48 6 7 mph 1012.7mb 40f 45f
9:42 5 6 mph 1012.6mb 40f 45f
9:36 3
mph
1012.7mb 40f 45f
9:30 3
mph
1012.6mb 40f 45f
9:24 3 5 mph 1012.6mb 40f 45f
9:18 3
mph
1012.7mb 40f 45f
9:12 2 5 mph 1012.6mb 40f 45f
9:06 5 6 mph 1012.5mb 40f 45f
9:00 2 3 mph 1012.6mb 40f 45f
8:54 2 3 mph 1012.6mb 40f 45f
8:48 2 5 mph 1012.6mb 40f 45f
8:42 6 7 mph 1012.4mb 40f 45f
8:36 6 7 mph 1012.3mb 40f 45f
8:30 6 7 mph 1012.4mb 40f 46f
8:24 7 8 mph 1012.2mb 40f 46f
8:18 8 10 mph 1012.2mb 40f 46f
8:12 7 8 mph 1012.1mb 40f 46f
8:06 7 8 mph 1012.2mb 40f 46f
8:00 7
mph
1012.3mb 40f 46f
7:54 7
mph
1012.3mb 40f 45f
7:48 7
mph
1012.3mb 40f 45f
7:42 5 6 mph 1012.3mb 40f 45f
7:36 5 6 mph 1012.3mb 40f 45f
7:30 5
mph
1012.3mb 40f 46f
7:24 3 5 mph 1012.2mb 40f 46f
7:18 3
mph
1012.2mb 40f 47f
7:12 3 6 mph 1012mb 40f 46f
7:06 5 6 mph 1012mb 40f 46f
7:00 5 6 mph 1012mb 40f 47f
6:54 5 7 mph 1012mb 40f 47f
6:48 5 6 mph 1011.9mb 40f 47f
6:42 6 7 mph 1011.9mb 40f 47f
6:36 3 6 mph 1011.7mb 40f 47f
6:30 2 3 mph 1011.7mb 40f 47f
6:24 3 6 mph 1011.6mb 40f 48f
6:18 3 7 mph 1011.6mb 40f 48f
6:12 5 7 mph 1011.4mb 40f 47f
6:06 5 7 mph 1011.2mb 40f 46f
6:00 6 8 mph 1011.1mb 40f 48f
5:54 6 7 mph 1011mb 40f 47f
5:48 7 10 mph 1010.7mb 40f 48f
5:42 8 9 mph 1010.7mb 40f 47f
5:36 8 10 mph 1010.8mb 40f 47f
5:30 7 8 mph 1010.7mb 40f 47f
5:24 7 9 mph 1010.6mb 40f 48f
5:18 7 8 mph 1010.4mb 40f 48f
5:12 8 10 mph 1010.2mb 40f 50f
5:06 7 9 mph 1010mb 40f 51f
5:00 8 10 mph 1010mb 40f 51f
4:54 9 11 mph 1010mb 40f 52f
4:48 7 10 mph 1009.9mb 40f 52f
4:42 6 9 mph 1009.8mb 40f 52f
4:36 6 10 mph 1009.7mb 40f 52f
4:30 7 9 mph 1009.7mb 40f 52f
4:24 6 10 mph 1009.5mb 40f 52f
4:18 8 10 mph 1009.6mb 40f 52f
4:12 6 8 mph 1009.6mb 40f 52f
4:06 6 9 mph 1009.6mb 40f 52f
4:00 7 9 mph 1009.3mb 40f 51f
3:54 5 9 mph 1009.5mb 40f 50f
3:48 5 9 mph 1009.5mb 40f 50f
3:42 8 10 mph 1009.4mb 40f 48f
3:36 8 9 mph 1009.6mb 40f 48f
3:30 7 8 mph 1009.6mb 40f 48f
3:24 7 9 mph 1009.6mb 40f 48f
3:18 9 10 mph 1009.6mb 40f 48f
3:12 8 10 mph 1009.6mb 40f 49f
3:06 8 9 mph 1009.6mb 40f 49f
3:00 8 10 mph 1009.7mb 40f 49f
2:54 8 10 mph 1009.7mb 40f 49f
2:48 8 9 mph 1009.8mb 40f 48f
2:42 7 8 mph 1009.8mb 40f 49f
2:36 7 8 mph 1009.8mb 40f 49f
2:30 7 8 mph 1009.8mb 40f 49f
2:24 6 8 mph 1009.9mb 40f 50f
2:18 6 7 mph 1009.9mb 40f 49f
2:12 5 6 mph 1009.9mb 40f 49f
2:06 5 7 mph 1009.9mb 40f 49f
2:00 5 6 mph 1010mb 40f 49f
1:54 6 9 mph 1010mb 40f 49f
1:48 6 8 mph 1010.1mb 40f 49f
1:42 5 7 mph 1010.1mb 40f 48f
1:36 3 7 mph 1010.1mb 40f 47f
1:30 5 9 mph 1010.2mb 40f 47f
1:24 5 7 mph 1010.2mb 40f 48f
1:18 6 7 mph 1010.2mb 40f 48f
1:12 5 7 mph 1010.3mb 40f 49f
1:06 3 7 mph 1010.3mb 40f 49f
1:00 6 7 mph 1010.4mb 40f 48f
12:54 6 7 mph 1010.6mb 40f 48f
12:42 5 6 mph 1010.8mb 40f 47f
12:36 5 7 mph 1010.8mb 40f 48f
12:24 6 8 mph 1011mb 40f 48f
12:18 8 9 mph 1011.1mb 40f 47f
12:12 7 9 mph 1011.2mb 40f 48f
12:06 7 9 mph 1011.3mb 40f 48f
11:54 6 7 mph 1011.4mb 40f 49f
11:48 6 8 mph 1011.3mb 40f 48f
11:42 6 7 mph 1011.5mb 40f 48f
11:36 6 8 mph 1011.6mb 40f 49f
11:30 7 9 mph 1011.7mb 40f 51f
11:24 8 10 mph 1011.8mb 40f 51f
11:18 7 10 mph 1012mb 40f 52f
11:12 9 14 mph 1012.2mb 40f 52f
11:06 10 15 mph 1012.2mb 40f 52f
11:00 9 15 mph 1012.3mb 40f 53f
10:54 7 11 mph 1012.4mb 40f 54f
10:48 8 10 mph 1012.5mb 40f 53f
10:36 6 7 mph 1012.5mb 40f 49f
10:30 5 6 mph 1012.6mb 40f 48f
10:24 6 8 mph 1012.6mb 40f 48f
10:18 5 7 mph 1012.6mb 40f 49f
10:12 6 8 mph 1012.7mb 40f 47f
10:06 6 7 mph 1012.7mb 40f 47f
10:00 5 7 mph 1012.6mb 40f 46f
9:54 6 7 mph 1012.7mb 40f 45f
9:48 6 7 mph 1012.7mb 40f 45f
9:42 6 7 mph 1012.6mb 40f 44f
9:36 6 7 mph 1012.6mb 40f 45f
9:30 5
mph
1012.7mb 40f 44f
9:24 5 6 mph 1012.6mb 40f 43f
9:18 5 6 mph 1012.6mb 40f 42f
9:12 3 5 mph 1012.6mb 40f 42f
9:06 5
mph
1012.6mb 40f 41f
9:00 2 3 mph 1012.6mb 40f 41f
8:54 2 3 mph 1012.8mb 40f 40f
8:48 2 5 mph 1012.8mb 40f 40f
8:42 1 2 mph 1012.7mb 40f 39f
8:36 2
mph
1012.7mb 40f 39f
8:30 1
mph
1012.7mb 40f 39f
8:24  -  1 mph 1012.7mb 40f 39f
8:18 1
mph
1012.6mb 40f 38f
8:12  -  mph 1012.7mb 40f 39f
8:06  -  2 mph 1012.6mb 40f 38f
8:00 1
mph
1012.6mb 40f 38f
7:54  -  mph 1012.6mb 40f 38f
7:48  -  1 mph 1012.7mb 40f 38f
7:42  -  2 mph 1012.7mb 40f 37f
7:36 1 2 mph 1012.7mb 40f 37f
7:30 2
mph
1012.6mb 40f 37f
7:24 1 2 mph 1012.6mb 40f 37f
7:18 2
mph
1012.6mb 40f 37f
7:12 1 2 mph 1012.6mb 40f 37f
7:06 2
mph
1012.6mb 40f 37f
7:00 1 2 mph 1012.5mb 40f 37f
6:54 1 2 mph 1012.5mb 40f 37f
6:48 1
mph
1012.4mb 40f 37f
6:42 1
mph
1012.3mb 40f 37f
6:36  -  mph 1012.2mb 40f 38f
6:30  -  1 mph 1012.2mb 40f 38f
6:24  -  1 mph 1012.1mb 40f 38f
6:18 1
mph
1012.1mb 40f 38f
6:12  -  1 mph 1012.1mb 40f 38f
6:06  -  1 mph 1012mb 40f 38f
6:00  -  1 mph 1012mb 40f 38f
5:54 1 2 mph 1012.1mb 40f 38f
5:48 2 3 mph 1012.1mb 40f 38f
5:42 3
mph
1012.1mb 40f 38f
5:36 2 5 mph 1012.1mb 40f 38f
5:30 3 5 mph 1012.1mb 40f 38f
5:24 2 3 mph 1012.2mb 40f 38f
5:18 2 5 mph 1012.2mb 40f 38f
5:12 3
mph
1012.1mb 40f 38f
5:06 3 5 mph 1012.1mb 40f 38f
5:00 3
mph
1012.1mb 40f 38f
4:54 1 2 mph 1012.1mb 40f 38f
4:48 2
mph
1012mb 40f 38f
3:54 2 3 mph 1011.9mb 40f 38f
3:48 2
mph
1011.9mb 40f 38f
2:54 1 2 mph 1012.3mb 40f 38f
2:48  -  mph 1012.4mb 40f 38f
1:54 1 3 mph 1012.2mb 40f 39f
1:48 3 6 mph 1012.2mb 40f 39f
12:54 2
mph
1012.2mb 40f 39f
12:48  -  3 mph 1012.3mb 40f 39f
mié 02/22 11:54  -  mph 1012.3mb 40f 39f
11:48  -  1 mph 1012.3mb 40f 39f
4:54 6 9 mph 1012.5mb 40f 47f
2:54 7 10 mph 1012.7mb 40f 51f
2:48 7 9 mph 1012.7mb 40f 50f
12:48 6 9 mph 1014.5mb 40f 50f
11:54 6 9 mph 1015.3mb 40f 47f
11:48 8 11 mph 1015.3mb 40f 46f
10:54 5 8 mph 1015.9mb 40f 47f
10:48 5 8 mph 1016mb 40f 46f
9:54 3 7 mph 1016.6mb 40f 45f
9:48 7 8 mph 1016.6mb 40f 45f
8:54 7 8 mph 1017.2mb 40f 44f
8:48 5 8 mph 1017.4mb 40f 45f
7:54 2 6 mph 1017.5mb 40f 42f
7:48 5 7 mph 1017.6mb 40f 42f
5:54 3
mph
1017.5mb 40f 40f
5:48 2 3 mph 1017.6mb 40f 40f
5:42 2 3 mph 1017.6mb 40f 40f
5:36 2 5 mph 1017.5mb 40f 40f
5:30 3 5 mph 1017.5mb 40f 40f
5:24 5
mph
1017.5mb 40f 40f
5:18 5 6 mph 1017.5mb 40f 40f
5:12 5 6 mph 1017.6mb 40f 40f
5:06 5 6 mph 1017.7mb 40f 40f
5:00 3 6 mph 1017.8mb 40f 41f
4:54 5 7 mph 1017.7mb 40f 41f
4:48 2 7 mph 1017.7mb 40f 41f
4:42 6 7 mph 1017.6mb 40f 40f
4:36 5 7 mph 1017.6mb 40f 40f
4:30 6 8 mph 1017.6mb 40f 40f
4:24 6 8 mph 1017.5mb 40f 40f
4:18 5 7 mph 1017.6mb 40f 40f
4:12 5 6 mph 1017.7mb 40f 40f
4:06 3 9 mph 1017.8mb 40f 40f
4:00 5 7 mph 1017.7mb 40f 40f
3:54 3
mph
1018mb 40f 40f
3:48 3 5 mph 1018.2mb 40f 40f
3:42 2 3 mph 1018.3mb 40f 40f
3:36 3 5 mph 1018.3mb 40f 40f
3:30 3 5 mph 1018.3mb 40f 40f
3:24 2 3 mph 1018.3mb 40f 40f
3:18 1 5 mph 1018.3mb 40f 40f
3:12  -  2 mph 1018.4mb 40f 40f
3:06 2 5 mph 1018.5mb 40f 40f
3:00 3
mph
1018.6mb 40f 40f
2:54 3
mph
1018.7mb 40f 40f
2:48 2 3 mph 1018.7mb 40f 40f
2:42 2
mph
1018.7mb 40f 39f
2:36 1 2 mph 1018.7mb 40f 39f
2:30 1 3 mph 1018.7mb 40f 39f
2:24 3
mph
1018.5mb 40f 39f
2:18 2 5 mph 1018.5mb 40f 39f
2:12 3 5 mph 1018.5mb 40f 39f
2:06 3 6 mph 1018.6mb 40f 39f
2:00 5
mph
1018.5mb 40f 39f
1:54 3
mph
1018.6mb 40f 39f
1:48 2 5 mph 1018.7mb - -
1:42 3 5 mph 1018.9mb - -
1:36 2 3 mph 1019mb - -
1:30 3
mph
1019.1mb 40f 39f
1:24 2 3 mph 1019mb 40f 39f
1:18 3
mph
1019.1mb 40f 39f
1:12 2 5 mph 1019.2mb 40f 39f
1:06 5 6 mph 1019.3mb 40f 39f
1:00 5 6 mph 1019.3mb 40f 39f
12:54 5 6 mph 1019.2mb 40f 39f
12:48 3 5 mph 1019.3mb 40f 38f
12:42 3 6 mph 1019.5mb 40f 39f
12:36 2 3 mph 1019.8mb 40f 39f
12:30 2 3 mph 1020mb 40f 39f
12:24 3 5 mph 1019.9mb 40f 39f
12:18 5 6 mph 1019.9mb 40f 39f
12:12 3 6 mph 1020mb 40f 39f
12:06 3 6 mph 1020.1mb 40f 39f
12:00 6 7 mph 1020mb 40f 39f
mar 02/21 11:54 5 6 mph 1020.1mb 40f 39f
11:48 6 7 mph 1020.1mb 40f 39f
11:42 5 6 mph 1020.3mb 40f 39f
11:36 5 6 mph 1020.5mb 40f 39f
11:30 6 7 mph 1020.6mb 40f 39f
11:24 5 7 mph 1020.7mb 40f 39f
11:18 5 7 mph 1020.9mb 40f 39f
11:12 5 7 mph 1021mb 40f 39f
11:06 5 6 mph 1021mb 40f 39f
11:00 5 6 mph 1021.1mb 40f 39f
10:54 5 6 mph 1021.1mb 40f 39f
10:48 3 5 mph 1021.3mb 40f 39f
10:42 3 5 mph 1021.5mb 40f 39f
10:36 3 5 mph 1021.5mb 40f 39f
10:30 3
mph
1021.6mb 40f 39f
10:24 3 5 mph 1021.6mb 40f 39f
10:18 3 5 mph 1021.8mb 40f 39f
10:12 3 6 mph 1021.9mb 40f 39f
10:06 5
mph
1021.9mb 40f 39f
10:00 2 5 mph 1022mb 40f 39f
9:54 3 5 mph 1022.1mb 40f 39f
9:48 2 5 mph 1022.1mb 40f 39f
9:42 3 5 mph 1022.3mb 40f 39f
9:36 3 6 mph 1022.2mb 40f 39f
9:30 5 8 mph 1022.1mb 40f 39f
9:24 6 8 mph 1022.2mb 40f 39f
9:18 7 8 mph 1022.2mb 40f 39f
9:12 6 8 mph 1022.2mb 40f 39f
9:06 6 7 mph 1022.2mb 40f 39f
9:00 6 8 mph 1022.4mb 40f 40f
8:54 6 8 mph 1022.5mb 40f 40f
8:48 6 8 mph 1022.4mb 40f 40f
8:42 6 8 mph 1022.3mb 40f 40f
8:36 6 8 mph 1022.4mb 40f 40f
8:30 7 9 mph 1022.4mb 40f 40f
8:24 7 9 mph 1022.3mb 40f 40f
8:18 8 10 mph 1022.4mb 40f 40f
8:12 9 11 mph 1022.4mb 40f 40f
8:06 8 11 mph 1022.5mb 40f 40f
8:00 8 10 mph 1022.5mb 40f 40f
7:54 7 10 mph 1022.9mb 40f 40f
7:48 8 11 mph 1023.1mb 40f 40f
7:42 8 10 mph 1023.1mb 40f 40f
7:36 7 10 mph 1023.3mb 40f 40f
7:30 8 11 mph 1023.4mb 40f 40f
7:24 8 10 mph 1023.5mb 40f 40f
7:18 8 10 mph 1023.5mb 40f 40f
7:12 7 9 mph 1023.6mb 40f 40f
7:06 7 11 mph 1023.6mb 40f 40f
7:00 9 11 mph 1023.3mb 40f 40f
6:54 9 13 mph 1023.1mb 40f 40f
6:48 10 14 mph 1023.1mb 40f 40f
6:42 11 14 mph 1023.1mb 40f 40f
6:36 11 15 mph 1023.2mb 40f 40f
6:30 13 15 mph 1023.2mb 40f 40f
6:24 10 14 mph 1023.2mb 40f 40f
6:18 8 13 mph 1023.4mb 40f 40f
6:12 8 11 mph 1023.6mb 40f 40f
6:06 10 11 mph 1023.7mb 40f 40f
6:00 9 11 mph 1023.6mb 40f 40f
5:54 10 13 mph 1023.8mb 40f 40f
5:48 9 13 mph 1023.8mb 40f 40f
5:42 9 11 mph 1023.9mb 40f 40f
5:36 9 13 mph 1024.1mb 40f 40f
5:30 11 13 mph 1024.3mb 40f 40f
5:24 10 13 mph 1024.2mb 40f 40f
5:18 10 13 mph 1024.2mb 40f 39f
5:12 9 11 mph 1024.2mb 40f 40f
5:06 9 13 mph 1024.1mb 40f 39f
5:00 10 13 mph 1023.9mb 40f 39f
4:54 9 13 mph 1023.8mb 40f 39f
4:48 10 11 mph 1023.8mb 40f 39f
4:42 10 11 mph 1023.8mb 40f 39f
4:36 9 10 mph 1024mb 40f 39f
4:30 10 11 mph 1024.2mb 40f 39f
4:24 9 10 mph 1024.2mb 40f 39f
4:18 9 10 mph 1024.2mb 40f 39f
4:12 9 10 mph 1024.3mb 40f 39f
4:06 9 10 mph 1024.5mb 40f 39f
4:00 9 10 mph 1024.5mb 40f 39f
3:54 8 10 mph 1024.6mb 40f 39f
3:48 9 10 mph 1024.6mb 40f 39f
3:42 9 11 mph 1024.4mb 40f 40f
3:36 9 10 mph 1024.4mb 40f 39f
3:30 9 10 mph 1024.5mb 40f 40f
3:24 8 10 mph 1024.4mb 40f 39f
3:18 9 10 mph 1024.5mb 40f 39f
3:12 9 11 mph 1024.6mb 40f 39f
3:06 10 11 mph 1024.6mb 40f 39f
3:00 9 11 mph 1024.8mb 40f 39f
2:54 9 10 mph 1024.9mb 40f 39f
2:48 10 11 mph 1024.9mb 40f 39f
2:42 9 11 mph 1024.9mb 40f 39f
2:36 10 11 mph 1024.8mb 40f 39f
2:30 11 13 mph 1025mb 40f 39f
2:24 10 13 mph 1025mb 40f 39f
2:18 10 11 mph 1025mb 40f 39f
2:12 9 11 mph 1025.1mb 40f 39f
2:06 11
mph
1025.2mb 40f 39f
2:00 9 10 mph 1025.7mb 40f 39f
1:54 9 10 mph 1025.6mb 40f 39f
1:48 9 10 mph 1025.6mb 40f 39f
1:42 10 11 mph 1025.5mb 40f 38f
1:36 9 10 mph 1025.6mb 40f 39f
1:30 9 10 mph 1025.6mb 40f 39f
1:24 8 9 mph 1025.7mb 40f 39f
1:18 8 9 mph 1025.9mb 40f 39f
1:12 8 9 mph 1025.9mb 40f 39f
1:06 8 9 mph 1025.9mb 40f 39f
1:00 8 9 mph 1026.1mb 40f 39f
12:54 7 9 mph 1026.2mb 40f 39f
12:48 8 9 mph 1026.3mb 40f 39f
12:42 9 10 mph 1026.5mb 40f 38f
12:36 9 11 mph 1026.6mb 40f 38f
12:30 8 10 mph 1026.7mb 40f 38f
12:24 9 10 mph 1026.7mb 40f 38f
12:18 9 10 mph 1027mb 40f 38f
12:12 9 10 mph 1027.1mb 40f 38f
12:06 8 9 mph 1027.5mb 40f 38f
12:00 9
mph
1027.5mb 40f 38f
11:54 9 10 mph 1027.5mb 40f 38f
11:48 9 10 mph 1027.5mb 40f 38f
11:42 8 10 mph 1027.7mb 40f 39f
11:36 9 10 mph 1027.7mb 40f 38f
11:30 9 10 mph 1027.9mb 40f 38f
11:24 8 10 mph 1027.9mb 40f 39f
11:18 9 10 mph 1027.9mb 40f 39f
11:12 9 10 mph 1027.9mb 40f 38f
11:06 9 10 mph 1028mb 40f 39f
11:00 8 10 mph 1028.2mb 40f 39f
10:54 8 10 mph 1028.3mb 40f 38f
10:48 8 9 mph 1028.3mb 40f 39f
10:42 8
mph
1028.3mb 40f 39f
10:36 6 7 mph 1028.4mb 40f 39f
10:30 6 7 mph 1028.4mb 40f 38f
10:24 5 6 mph 1028.4mb 40f 40f
10:18 1 3 mph 1028.6mb 40f 39f
10:06 2 5 mph 1028.7mb 40f 39f
10:00 3 5 mph 1028.7mb 40f 38f
9:54 2 5 mph 1028.4mb 40f 38f
9:48 2 5 mph 1028.5mb 40f 38f
9:42 2 5 mph 1028.4mb 40f 37f
9:36 3 5 mph 1028.4mb 40f 36f
9:30 5 6 mph 1028.4mb 40f 35f
9:24 5 6 mph 1028.4mb 40f 35f
9:18 7 8 mph 1028.3mb 40f 34f
9:12 5 6 mph 1028.3mb 40f 34f
9:06 5 7 mph 1028.5mb 40f 34f
9:00 5 7 mph 1028.7mb 40f 34f
8:54 5 7 mph 1028.7mb 40f 34f
8:48 6 8 mph 1028.9mb 40f 33f
8:42 6 8 mph 1028.9mb 40f 33f
8:36 6 8 mph 1029.1mb 40f 33f
8:30 5 6 mph 1029.1mb 40f 32f
8:24 5 8 mph 1029.1mb 40f 32f
8:18 6 8 mph 1029mb 40f 32f
8:12 6 8 mph 1028.8mb 40f 31f
8:06 5 8 mph 1028.6mb 40f 31f
8:00 6 8 mph 1028.5mb 40f 31f
7:54 6 7 mph 1028.6mb 40f 31f
7:48 6 8 mph 1028.8mb 40f 30f
7:42 5 6 mph 1028.9mb 40f 30f
7:36 6 8 mph 1028.9mb 40f 30f
7:30 5 7 mph 1029.1mb 40f 29f
7:24 5 7 mph 1029mb 40f 29f
7:18 5 7 mph 1029.1mb 40f 29f
7:12 6 7 mph 1029mb 40f 29f
7:06 5 7 mph 1029mb 40f 29f
7:00 5 8 mph 1028.9mb 40f 29f
6:54 5 7 mph 1028.9mb 40f 29f
6:48 5 8 mph 1028.9mb 40f 29f
6:42 7 9 mph 1029mb 40f 29f
6:36 6 8 mph 1028.8mb 40f 29f
6:30 7 9 mph 1028.9mb 40f 29f
6:24 7 10 mph 1028.8mb 40f 29f
6:18 7 9 mph 1028.8mb 40f 29f
6:12 7 10 mph 1028.8mb 40f 29f
6:06 7 9 mph 1028.7mb 40f 29f
6:00 7 9 mph 1028.8mb 40f 29f
5:54 6 7 mph 1028.8mb 40f 29f
5:48 6 8 mph 1028.8mb 40f 29f
5:42 6 8 mph 1028.8mb 40f 30f
5:36 6 8 mph 1028.6mb 40f 30f
5:30 6 9 mph 1028.5mb 40f 30f
5:24 6 8 mph 1028.6mb 40f 30f
5:18 5 8 mph 1028.4mb 40f 30f
5:12 5 9 mph 1028.5mb 40f 30f
5:06 6 7 mph 1028.3mb 40f 30f
5:00 5 9 mph 1028.3mb 40f 30f
4:54 6 9 mph 1028.4mb 40f 30f
4:48 5 7 mph 1028.4mb 40f 30f
4:42 5 8 mph 1028.5mb 40f 31f
4:36 5 9 mph 1028.5mb 40f 31f
4:30 6 9 mph 1028.4mb 40f 31f
4:24 7 9 mph 1028.3mb 40f 31f
4:18 3 7 mph 1028.2mb 40f 31f
4:12 3 6 mph 1028.2mb 40f 30f
4:06 5 7 mph 1028.1mb 40f 30f
4:00 6 8 mph 1028.2mb 40f 30f
3:54 3 7 mph 1028.1mb 40f 31f
3:48 2 6 mph 1028mb 40f 31f
3:42 3 7 mph 1028mb 40f 31f
3:36 3 5 mph 1028.2mb 40f 31f
3:30 1 6 mph 1028.2mb 40f 31f
3:24 1 3 mph 1028.2mb 40f 31f
3:18 1 5 mph 1028.2mb 40f 31f
3:12 3 6 mph 1028.3mb 40f 31f
3:06 5 7 mph 1028.4mb 40f 31f
3:00 3 7 mph 1028.4mb 40f 31f
2:54 5 6 mph 1028.3mb 40f 31f
2:48 1 6 mph 1028.2mb 40f 31f
2:42 3 6 mph 1028.3mb 40f 31f
2:36 5 8 mph 1028.3mb 40f 31f